createdAt,value
2019-02-18T00:01:54.304Z,13.53
2019-02-18T00:04:24.127Z,12.68
2019-02-18T00:06:53.937Z,13.13
2019-02-18T00:09:23.750Z,14.70
2019-02-18T00:11:53.550Z,12.95
2019-02-18T00:14:23.354Z,13.28
2019-02-18T00:16:53.175Z,13.62
2019-02-18T00:19:22.932Z,14.50
2019-02-18T00:21:52.746Z,14.07
2019-02-18T00:24:23.351Z,12.25
2019-02-18T00:26:53.119Z,12.63
2019-02-18T00:29:22.894Z,13.53
2019-02-18T00:31:52.661Z,12.90
2019-02-18T00:34:23.237Z,12.00
2019-02-18T00:36:52.971Z,12.35
2019-02-18T00:39:23.069Z,12.40
2019-02-18T00:41:52.949Z,12.40
2019-02-18T00:44:23.650Z,13.05
2019-02-18T00:46:53.733Z,13.75
2019-02-18T00:49:26.037Z,13.48
2019-02-18T00:51:56.135Z,14.53
2019-02-18T00:54:25.974Z,14.23
2019-02-18T00:56:56.004Z,13.75
2019-02-18T00:59:25.916Z,15.65
2019-02-18T01:01:55.720Z,14.50
2019-02-18T01:04:25.501Z,14.10
2019-02-18T01:06:55.706Z,15.60
2019-02-18T01:09:25.587Z,15.80
2019-02-18T01:11:55.360Z,14.95
2019-02-18T01:14:26.156Z,14.73
2019-02-18T01:16:55.997Z,15.28
2019-02-18T01:19:25.796Z,15.15
2019-02-18T01:21:55.503Z,14.70
2019-02-18T01:24:25.334Z,14.20
2019-02-18T01:26:55.145Z,13.13
2019-02-18T01:29:25.165Z,12.82
2019-02-18T01:31:54.993Z,13.83
2019-02-18T01:34:24.754Z,14.95
2019-02-18T01:36:54.520Z,14.07
2019-02-18T01:39:24.277Z,12.83
2019-02-18T01:41:53.993Z,14.07
2019-02-18T01:44:23.725Z,13.65
2019-02-18T01:46:53.435Z,13.53
2019-02-18T01:49:23.191Z,13.50
2019-02-18T01:51:54.596Z,12.37
2019-02-18T01:54:24.342Z,11.90
2019-02-18T01:56:55.020Z,13.13
2019-02-18T01:59:24.917Z,13.65
2019-02-18T02:01:54.695Z,12.67
2019-02-18T02:04:24.499Z,14.15
2019-02-18T02:06:54.266Z,13.50
2019-02-18T02:09:24.125Z,15.00
2019-02-18T02:11:53.935Z,13.95
2019-02-18T02:14:23.824Z,13.65
2019-02-18T02:16:53.523Z,14.55
2019-02-18T02:19:23.376Z,13.68
2019-02-18T02:21:53.190Z,12.93
2019-02-18T02:24:23.257Z,12.28
2019-02-18T02:26:52.976Z,12.10
2019-02-18T02:29:22.812Z,12.93
2019-02-18T02:31:52.879Z,13.13
2019-02-18T02:34:23.811Z,14.17
2019-02-18T02:36:53.785Z,13.08
2019-02-18T02:39:23.906Z,13.63
2019-02-18T02:41:53.685Z,14.27
2019-02-18T02:44:23.846Z,13.00
2019-02-18T02:46:53.602Z,13.37
2019-02-18T02:49:23.308Z,14.80
2019-02-18T02:51:53.098Z,15.20
2019-02-18T02:54:22.870Z,14.77
2019-02-18T02:56:52.884Z,14.25
2019-02-18T02:59:22.608Z,13.80
2019-02-18T03:01:52.802Z,13.10
2019-02-18T03:04:22.655Z,14.37
2019-02-18T03:06:52.409Z,14.73
2019-02-18T03:09:22.162Z,15.77
2019-02-18T03:11:51.912Z,15.47
2019-02-18T03:14:21.642Z,14.83
2019-02-18T03:16:51.423Z,13.57
2019-02-18T03:19:21.080Z,13.40
2019-02-18T03:21:50.793Z,13.90
2019-02-18T03:24:23.033Z,13.97
2019-02-18T03:26:52.852Z,15.37
2019-02-18T03:29:26.771Z,14.53
2019-02-18T03:31:56.560Z,14.70
2019-02-18T03:34:27.853Z,14.23
2019-02-18T03:36:58.536Z,14.63
2019-02-18T03:39:28.504Z,14.03
2019-02-18T03:41:58.194Z,12.83
2019-02-18T03:44:28.079Z,12.70
2019-02-18T03:46:57.912Z,12.63
2019-02-18T03:49:27.762Z,12.10
2019-02-18T03:51:57.550Z,11.67
2019-02-18T03:54:27.329Z,12.43
2019-02-18T03:56:57.064Z,12.27
2019-02-18T03:59:27.597Z,12.57
2019-02-18T04:01:57.326Z,13.57
2019-02-18T04:04:27.115Z,12.33
2019-02-18T04:06:56.897Z,13.03
2019-02-18T04:09:26.640Z,11.83
2019-02-18T04:11:56.368Z,13.17
2019-02-18T04:14:26.102Z,13.57
2019-02-18T04:16:55.967Z,14.33
2019-02-18T04:19:25.758Z,12.43
2019-02-18T04:21:55.542Z,13.33
2019-02-18T04:24:25.466Z,13.37
2019-02-18T04:26:55.350Z,12.53
2019-02-18T04:29:25.184Z,12.47
2019-02-18T04:31:54.991Z,13.90
2019-02-18T04:34:24.794Z,14.00
2019-02-18T04:36:55.604Z,14.00
2019-02-18T04:39:25.554Z,14.30
2019-02-18T04:41:55.261Z,13.93
2019-02-18T04:44:25.061Z,14.17
2019-02-18T04:46:54.880Z,13.67
2019-02-18T04:49:24.921Z,15.23
2019-02-18T04:51:54.642Z,12.70
2019-02-18T04:54:24.384Z,14.23
2019-02-18T04:56:54.310Z,12.97
2019-02-18T04:59:24.067Z,14.23
2019-02-18T05:01:53.857Z,13.73
2019-02-18T05:04:23.609Z,13.83
2019-02-18T05:06:53.320Z,15.50
2019-02-18T05:09:23.479Z,14.15
2019-02-18T05:11:53.886Z,16.33
2019-02-18T05:14:23.855Z,13.90
2019-02-18T05:16:53.800Z,15.47
2019-02-18T05:19:23.680Z,14.43
2019-02-18T05:21:53.763Z,14.57
2019-02-18T05:24:24.449Z,13.73
2019-02-18T05:26:55.462Z,14.10
2019-02-18T05:29:25.257Z,14.87
2019-02-18T05:31:55.051Z,14.50
2019-02-18T05:34:24.875Z,15.97
2019-02-18T05:36:54.654Z,15.07
2019-02-18T05:39:24.351Z,14.77
2019-02-18T05:41:54.153Z,15.23
2019-02-18T05:44:23.999Z,14.77
2019-02-18T05:46:53.818Z,14.93
2019-02-18T05:49:23.517Z,15.13
2019-02-18T05:51:53.299Z,14.70
2019-02-18T05:54:23.092Z,15.57
2019-02-18T05:56:52.977Z,15.80
2019-02-18T05:59:22.703Z,15.23
2019-02-18T06:01:52.359Z,14.57
2019-02-18T06:04:23.077Z,14.87
2019-02-18T06:06:53.257Z,13.93
2019-02-18T06:09:29.879Z,16.87
2019-02-18T06:11:54.867Z,16.10
2019-02-18T06:14:24.728Z,15.67
2019-02-18T06:16:54.637Z,15.57
2019-02-18T06:19:24.799Z,15.83
2019-02-18T06:21:54.641Z,15.87
2019-02-18T06:24:24.552Z,15.73
2019-02-18T06:26:54.359Z,15.40
2019-02-18T06:29:24.035Z,15.83
2019-02-18T06:31:53.972Z,16.50
2019-02-18T06:34:23.947Z,14.87
2019-02-18T06:36:54.051Z,15.37
2019-02-18T06:39:23.936Z,15.50
2019-02-18T06:41:53.752Z,15.30
2019-02-18T06:44:25.325Z,16.23
2019-02-18T06:46:56.756Z,15.63
2019-02-18T06:49:26.574Z,15.40
2019-02-18T06:51:56.391Z,16.37
2019-02-18T06:54:26.311Z,15.73
2019-02-18T06:57:01.629Z,16.00
2019-02-18T06:59:33.090Z,15.20
2019-02-18T07:02:13.400Z,15.87
2019-02-18T07:04:45.027Z,16.27
2019-02-18T07:07:16.476Z,16.07
2019-02-18T07:09:51.221Z,15.63
2019-02-18T07:12:23.990Z,15.50
2019-02-18T07:14:53.792Z,16.40
2019-02-18T07:17:23.485Z,15.13
2019-02-18T07:19:53.421Z,15.17
2019-02-18T07:22:23.284Z,15.80
2019-02-18T07:24:52.997Z,17.00
2019-02-18T07:27:22.825Z,15.57
2019-02-18T07:29:54.553Z,15.57
2019-02-18T07:32:24.579Z,15.53
2019-02-18T07:34:54.361Z,15.77
2019-02-18T07:37:24.045Z,16.23
2019-02-18T07:40:01.146Z,15.63
2019-02-18T07:42:25.342Z,17.10
2019-02-18T07:44:55.502Z,17.17
2019-02-18T07:47:26.264Z,17.73
2019-02-18T07:49:55.977Z,17.77
2019-02-18T07:52:25.713Z,16.33
2019-02-18T07:54:55.418Z,19.87
2019-02-18T07:57:25.196Z,20.23
2019-02-18T07:59:55.029Z,18.43
2019-02-18T08:02:25.585Z,21.67
2019-02-18T08:04:55.419Z,20.23
2019-02-18T08:07:25.236Z,20.63
2019-02-18T08:09:55.022Z,21.37
2019-02-18T08:12:24.882Z,22.03
2019-02-18T08:14:54.809Z,21.37
2019-02-18T08:17:25.641Z,22.97
2019-02-18T08:19:57.066Z,22.30
2019-02-18T08:22:26.988Z,24.43
2019-02-18T08:24:56.750Z,25.30
2019-02-18T08:27:26.461Z,25.37
2019-02-18T08:29:56.139Z,24.00
2019-02-18T08:32:27.071Z,24.47
2019-02-18T08:34:57.206Z,27.70
2019-02-18T08:37:26.991Z,26.67
2019-02-18T08:39:56.643Z,26.83
2019-02-18T08:42:26.769Z,28.47
2019-02-18T08:44:57.301Z,27.23
2019-02-18T08:47:27.086Z,25.03
2019-02-18T08:49:57.157Z,25.70
2019-02-18T08:52:26.942Z,25.27
2019-02-18T08:54:57.052Z,26.67
2019-02-18T08:57:27.381Z,22.73
2019-02-18T08:59:57.140Z,24.47
2019-02-18T09:02:26.984Z,23.43
2019-02-18T09:04:57.404Z,25.90
2019-02-18T09:07:27.111Z,26.73
2019-02-18T09:09:56.970Z,25.77
2019-02-18T09:12:26.914Z,25.97
2019-02-18T09:14:56.714Z,26.07
2019-02-18T09:17:26.432Z,27.30
2019-02-18T09:19:56.225Z,24.83
2019-02-18T09:22:36.414Z,26.20
2019-02-18T09:25:18.534Z,25.40
2019-02-18T09:27:50.693Z,25.00
2019-02-18T09:30:22.155Z,25.70
2019-02-18T09:32:51.856Z,27.37
2019-02-18T09:35:21.635Z,26.93
2019-02-18T09:37:51.445Z,26.47
2019-02-18T09:40:21.217Z,26.57
2019-02-18T09:42:51.057Z,27.00
2019-02-18T09:45:20.879Z,28.20
2019-02-18T09:47:50.654Z,26.43
2019-02-18T09:50:20.709Z,26.37
2019-02-18T09:52:50.491Z,25.43
2019-02-18T09:55:21.144Z,27.93
2019-02-18T09:57:51.074Z,27.37
2019-02-18T10:00:20.852Z,26.73
2019-02-18T10:02:50.590Z,25.65
2019-02-18T10:05:21.004Z,26.52
2019-02-18T10:07:51.082Z,27.27
2019-02-18T10:10:20.906Z,27.25
2019-02-18T10:12:50.755Z,27.83
2019-02-18T10:15:21.604Z,25.43
2019-02-18T10:17:51.312Z,26.25
2019-02-18T10:20:22.439Z,25.00
2019-02-18T10:22:52.190Z,24.63
2019-02-18T10:25:22.362Z,25.37
2019-02-18T10:27:52.160Z,25.97
2019-02-18T10:30:22.007Z,24.65
2019-02-18T10:32:51.748Z,25.95
2019-02-18T10:35:21.550Z,27.80
2019-02-18T10:37:54.981Z,25.95
2019-02-18T10:40:24.911Z,26.82
2019-02-18T10:42:54.621Z,28.32
2019-02-18T10:45:24.390Z,27.75
2019-02-18T10:47:54.232Z,27.00
2019-02-18T10:50:24.663Z,27.73
2019-02-18T10:52:54.619Z,27.25
2019-02-18T10:55:25.208Z,26.77
2019-02-18T10:57:54.998Z,26.23
2019-02-18T11:00:24.786Z,25.15
2019-02-18T11:02:54.990Z,21.97
2019-02-18T11:05:25.033Z,23.25
2019-02-18T11:07:55.615Z,23.35
2019-02-18T11:10:25.672Z,22.10
2019-02-18T11:12:55.495Z,21.37
2019-02-18T11:15:25.494Z,20.65
2019-02-18T11:17:55.318Z,16.48
2019-02-18T11:20:25.102Z,17.57
2019-02-18T11:22:55.099Z,17.57
2019-02-18T11:25:24.818Z,16.87
2019-02-18T11:27:54.685Z,17.67
2019-02-18T11:30:24.577Z,19.55
2019-02-18T11:32:54.764Z,22.37
2019-02-18T11:35:24.554Z,21.62
2019-02-18T11:37:54.390Z,18.92
2019-02-18T11:40:24.785Z,16.67
2019-02-18T11:42:55.085Z,15.53
2019-02-18T11:45:24.967Z,19.50
2019-02-18T11:47:56.053Z,16.52
2019-02-18T11:50:25.842Z,18.82
2019-02-18T11:52:55.643Z,17.42
2019-02-18T11:55:26.351Z,17.60
2019-02-18T11:57:56.165Z,18.98
2019-02-18T12:00:25.896Z,18.90
2019-02-18T12:03:03.613Z,18.95
2019-02-18T12:05:29.807Z,21.57
2019-02-18T12:07:59.988Z,20.02
2019-02-18T12:10:29.786Z,19.57
2019-02-18T12:12:59.632Z,19.17
2019-02-18T12:15:29.423Z,22.25
2019-02-18T12:17:59.500Z,21.27
2019-02-18T12:20:29.313Z,20.68
2019-02-18T12:22:59.065Z,19.02
2019-02-18T12:25:28.822Z,18.52
2019-02-18T12:27:58.778Z,18.80
2019-02-18T12:30:29.429Z,19.80
2019-02-18T12:32:59.192Z,19.32
2019-02-18T12:35:31.433Z,18.82
2019-02-18T12:38:02.493Z,18.35
2019-02-18T12:40:32.618Z,22.10
2019-02-18T12:43:02.476Z,20.77
2019-02-18T12:45:33.105Z,19.35
2019-02-18T12:48:03.156Z,19.27
2019-02-18T12:50:33.282Z,19.10
2019-02-18T12:53:04.720Z,19.85
2019-02-18T12:55:34.707Z,19.07
2019-02-18T12:58:05.308Z,20.50
2019-02-18T13:00:36.536Z,17.15
2019-02-18T13:03:06.604Z,18.27
2019-02-18T13:05:38.870Z,17.95
2019-02-18T13:08:08.680Z,19.75
2019-02-18T13:10:38.824Z,20.25
2019-02-18T13:13:08.750Z,19.95
2019-02-18T13:15:39.078Z,20.02
2019-02-18T13:18:09.366Z,18.17
2019-02-18T13:20:39.369Z,18.80
2019-02-18T13:23:10.525Z,18.37
2019-02-18T13:25:47.341Z,18.12
2019-02-18T13:28:13.365Z,19.42
2019-02-18T13:30:43.126Z,18.75
2019-02-18T13:33:12.900Z,16.73
2019-02-18T13:35:42.655Z,18.02
2019-02-18T13:38:14.305Z,16.02
2019-02-18T13:40:44.132Z,16.73
2019-02-18T13:43:13.925Z,18.60
2019-02-18T13:45:43.767Z,18.52
2019-02-18T13:48:13.473Z,20.05
2019-02-18T13:50:43.449Z,20.10
2019-02-18T13:53:13.407Z,20.55
2019-02-18T13:55:43.220Z,22.27
2019-02-18T13:58:13.129Z,23.47
2019-02-18T14:00:43.050Z,23.85
2019-02-18T14:03:12.954Z,21.85
2019-02-18T14:05:43.601Z,24.25
2019-02-18T14:08:13.471Z,20.10
2019-02-18T14:10:43.185Z,20.20
2019-02-18T14:13:13.284Z,20.17
2019-02-18T14:15:43.084Z,20.92
2019-02-18T14:18:13.132Z,20.43
2019-02-18T14:20:43.639Z,19.65
2019-02-18T14:23:15.857Z,20.40
2019-02-18T14:25:45.862Z,19.82
2019-02-18T14:28:15.634Z,20.15
2019-02-18T14:30:45.416Z,21.17
2019-02-18T14:33:16.996Z,20.27
2019-02-18T14:35:46.944Z,19.23
2019-02-18T14:38:17.663Z,20.75
2019-02-18T14:40:47.575Z,21.25
2019-02-18T14:43:17.510Z,20.30
2019-02-18T14:45:48.285Z,20.40
2019-02-18T14:48:18.221Z,22.65
2019-02-18T14:50:56.744Z,21.95
2019-02-18T14:53:24.264Z,20.72
2019-02-18T14:55:54.094Z,21.33
2019-02-18T14:58:23.876Z,21.05
2019-02-18T15:00:54.713Z,21.10
2019-02-18T15:03:24.557Z,21.37
2019-02-18T15:05:54.461Z,18.98
2019-02-18T15:08:24.262Z,19.60
2019-02-18T15:10:55.474Z,21.82
2019-02-18T15:13:26.010Z,36.95
2019-02-18T15:15:55.819Z,31.97
2019-02-18T15:18:25.914Z,35.10
2019-02-18T15:20:56.362Z,40.17
2019-02-18T15:23:26.355Z,46.25
2019-02-18T15:25:56.128Z,39.55
2019-02-18T15:28:26.590Z,33.75
2019-02-18T15:30:56.504Z,31.10
2019-02-18T15:33:26.301Z,29.52
2019-02-18T15:35:56.136Z,25.30
2019-02-18T15:38:28.316Z,20.80
2019-02-18T15:40:58.237Z,18.77
2019-02-18T15:43:28.081Z,18.80
2019-02-18T15:45:58.155Z,18.23
2019-02-18T15:48:27.996Z,18.42
2019-02-18T15:50:58.175Z,17.27
2019-02-18T15:53:28.908Z,18.25
2019-02-18T15:55:59.438Z,17.90
2019-02-18T15:58:29.256Z,19.32
2019-02-18T16:00:59.376Z,18.42
2019-02-18T16:03:29.778Z,17.75
2019-02-18T16:05:59.627Z,18.32
2019-02-18T16:08:29.342Z,18.10
2019-02-18T16:13:40.744Z,17.30
2019-02-18T16:16:10.691Z,17.42
2019-02-18T16:18:41.077Z,18.02
2019-02-18T16:21:11.529Z,17.52
2019-02-18T16:23:41.336Z,17.52
2019-02-18T16:26:11.192Z,16.87
2019-02-18T16:28:42.605Z,17.30
2019-02-18T16:31:13.308Z,16.97
2019-02-18T16:33:43.153Z,17.98
2019-02-18T16:36:13.060Z,16.80
2019-02-18T16:38:42.961Z,15.38
2019-02-18T16:41:12.811Z,14.78
2019-02-18T16:43:42.875Z,15.45
2019-02-18T16:46:12.581Z,15.03
2019-02-18T16:48:43.393Z,14.75
2019-02-18T16:51:13.536Z,13.88
2019-02-18T16:53:43.976Z,14.87
2019-02-18T16:56:14.610Z,14.25
2019-02-18T16:58:44.401Z,14.20
2019-02-18T17:01:14.341Z,14.45
2019-02-18T17:03:45.355Z,15.98
2019-02-18T17:06:15.568Z,16.57
2019-02-18T17:08:45.482Z,58.00
2019-02-18T17:11:15.920Z,44.53
2019-02-18T17:13:45.845Z,24.32
2019-02-18T17:16:16.571Z,23.07
2019-02-18T17:18:48.424Z,16.05
2019-02-18T17:21:18.394Z,18.85
2019-02-18T17:23:48.256Z,16.40
2019-02-18T17:26:18.436Z,18.42
2019-02-18T17:28:49.378Z,14.83
2019-02-18T17:31:19.323Z,12.88
2019-02-18T17:33:50.064Z,13.53
2019-02-18T17:36:20.058Z,13.32
2019-02-18T17:38:49.978Z,14.18
2019-02-18T17:41:19.920Z,14.30
2019-02-18T17:43:50.299Z,13.72
2019-02-18T17:46:20.255Z,14.05
2019-02-18T17:48:50.572Z,13.95
2019-02-18T17:51:20.421Z,14.15
2019-02-18T17:53:50.620Z,13.58
2019-02-18T17:56:20.820Z,13.08
2019-02-18T17:58:52.248Z,15.18
2019-02-18T18:01:22.964Z,13.15
2019-02-18T18:03:52.972Z,12.90
2019-02-18T18:06:22.838Z,14.10
2019-02-18T18:08:53.922Z,13.70
2019-02-18T18:11:23.940Z,12.88
2019-02-18T18:13:53.848Z,14.43
2019-02-18T18:16:23.745Z,14.87
2019-02-18T18:18:53.666Z,15.38
2019-02-18T18:21:24.868Z,14.47
2019-02-18T18:23:54.954Z,14.40
2019-02-18T18:26:25.650Z,15.48
2019-02-18T18:28:55.888Z,15.93
2019-02-18T18:31:26.091Z,14.87
2019-02-18T18:33:55.925Z,15.03
2019-02-18T18:36:26.936Z,15.75
2019-02-18T18:38:57.110Z,14.87
2019-02-18T18:41:27.077Z,15.30
2019-02-18T18:43:56.917Z,15.05
2019-02-18T18:46:28.253Z,14.53
2019-02-18T18:48:58.033Z,15.32
2019-02-18T18:51:28.202Z,15.38
2019-02-18T18:53:58.204Z,15.23
2019-02-18T18:56:28.365Z,15.18
2019-02-18T18:58:58.629Z,15.98
2019-02-18T19:01:28.665Z,15.08
2019-02-18T19:03:58.983Z,14.25
2019-02-18T19:06:29.082Z,15.25
2019-02-18T19:08:59.498Z,13.62
2019-02-18T19:11:30.242Z,12.15
2019-02-18T19:14:00.985Z,13.13
2019-02-18T19:16:30.947Z,13.18
2019-02-18T19:19:02.834Z,13.50
2019-02-18T19:21:34.114Z,13.48
2019-02-18T19:24:04.538Z,13.43
2019-02-18T19:26:34.974Z,13.20
2019-02-18T19:29:05.187Z,12.75
2019-02-18T19:31:35.145Z,12.75
2019-02-18T19:34:05.429Z,12.47
2019-02-18T19:36:35.250Z,14.03
2019-02-18T19:39:06.354Z,12.00
2019-02-18T19:41:36.655Z,12.28
2019-02-18T19:44:07.828Z,13.03
2019-02-18T19:46:38.277Z,12.63
2019-02-18T19:49:08.433Z,12.28
2019-02-18T19:51:38.517Z,13.38
2019-02-18T19:54:09.299Z,12.20
2019-02-18T19:56:39.094Z,13.25
2019-02-18T19:59:10.938Z,12.43
2019-02-18T20:01:41.201Z,13.05
2019-02-18T20:04:11.336Z,12.78
2019-02-18T20:06:41.764Z,13.55
2019-02-18T20:09:13.180Z,13.00
2019-02-18T20:11:44.125Z,12.53
2019-02-18T20:14:14.022Z,12.80
2019-02-18T20:16:44.070Z,12.23
2019-02-18T20:19:14.357Z,13.38
2019-02-18T20:21:44.179Z,13.48
2019-02-18T20:24:14.330Z,11.65
2019-02-18T20:26:44.623Z,13.28
2019-02-18T20:29:16.117Z,12.10
2019-02-18T20:31:45.949Z,11.63
2019-02-18T20:34:15.816Z,12.07
2019-02-18T20:36:47.415Z,12.82
2019-02-18T20:39:17.438Z,13.32
2019-02-18T20:41:47.385Z,13.62
2019-02-18T20:44:17.503Z,14.45
2019-02-18T20:46:47.312Z,13.32
2019-02-18T20:49:17.121Z,13.98
2019-02-18T20:51:48.085Z,15.13
2019-02-18T20:54:18.110Z,16.20
2019-02-18T20:56:48.329Z,13.95
2019-02-18T20:59:19.026Z,14.00
2019-02-18T21:01:49.180Z,16.27
2019-02-18T21:04:18.961Z,14.95
2019-02-18T21:06:50.084Z,20.30
2019-02-18T21:09:20.010Z,14.45
2019-02-18T21:11:50.108Z,15.32
2019-02-18T21:14:20.384Z,14.95
2019-02-18T21:16:51.189Z,16.67
2019-02-18T21:19:22.013Z,15.32
2019-02-18T21:21:51.894Z,15.40
2019-02-18T21:24:22.732Z,15.45
2019-02-18T21:26:52.807Z,15.60
2019-02-18T21:29:22.723Z,15.80
2019-02-18T21:31:53.632Z,15.72
2019-02-18T21:34:25.083Z,17.12
2019-02-18T21:36:54.850Z,16.40
2019-02-18T21:39:24.841Z,15.70
2019-02-18T21:41:56.275Z,15.78
2019-02-18T21:44:26.989Z,16.40
2019-02-18T21:46:57.449Z,15.60
2019-02-18T21:49:30.836Z,18.20
2019-02-18T21:52:03.256Z,17.73
2019-02-18T21:54:34.098Z,16.25
2019-02-18T21:57:03.928Z,16.85
2019-02-18T21:59:34.785Z,16.27
2019-02-18T22:02:05.706Z,16.60
2019-02-18T22:04:35.598Z,16.25
2019-02-18T22:07:05.438Z,17.30
2019-02-18T22:09:35.392Z,15.45
2019-02-18T22:12:05.184Z,18.85
2019-02-18T22:14:35.760Z,18.02
2019-02-18T22:17:07.182Z,17.75
2019-02-18T22:19:37.047Z,16.80
2019-02-18T22:22:08.531Z,17.27
2019-02-18T22:24:38.631Z,16.50
2019-02-18T22:27:09.494Z,17.67
2019-02-18T22:29:39.712Z,18.27
2019-02-18T22:32:09.507Z,18.07
2019-02-18T22:34:39.360Z,18.12
2019-02-18T22:37:11.637Z,17.75
2019-02-18T22:39:41.723Z,17.52
2019-02-18T22:42:12.815Z,17.40
2019-02-18T22:44:43.250Z,17.82
2019-02-18T22:47:12.965Z,18.40
2019-02-18T22:49:42.992Z,18.17
2019-02-18T22:52:13.812Z,18.57
2019-02-18T22:54:43.778Z,17.12
2019-02-18T22:57:14.703Z,18.60
2019-02-18T22:59:44.679Z,19.48
2019-02-18T23:02:15.365Z,19.52
2019-02-18T23:04:45.371Z,18.65
2019-02-18T23:07:15.343Z,19.27
2019-02-18T23:09:45.384Z,18.87
2019-02-18T23:12:15.107Z,17.57
2019-02-18T23:14:50.333Z,18.25
2019-02-18T23:17:16.621Z,18.70
2019-02-18T23:19:46.478Z,19.30
2019-02-18T23:22:16.261Z,18.73
2019-02-18T23:24:48.343Z,17.52
2019-02-18T23:27:18.204Z,18.60
2019-02-18T23:29:47.944Z,18.05
2019-02-18T23:32:17.652Z,18.37
2019-02-18T23:34:47.449Z,19.23
2019-02-18T23:37:17.304Z,18.85
2019-02-18T23:39:49.097Z,20.25
2019-02-18T23:42:19.694Z,18.70
2019-02-18T23:44:49.422Z,20.02
2019-02-18T23:47:19.331Z,20.23
2019-02-18T23:49:49.223Z,20.65
2019-02-18T23:52:18.960Z,20.82
2019-02-18T23:54:49.032Z,20.57
2019-02-18T23:57:18.905Z,18.90
2019-02-18T23:59:48.637Z,20.70
